ADDS METAR Data INFO
IDs: Format: Raw Decoded Include TAF

Data at: 2000 UTC 18 Feb 2018

KPTS 181955Z AUTO 19016G26KT 10SM CLR 14/02 A2990 RMK AO2 T01370020
KPTS 181935Z AUTO 18015G19KT 10SM CLR 13/01 A2992 RMK AO2 T01330012
KPTS 181915Z AUTO 18013G16KT 10SM CLR 13/02 A2995 RMK AO2 T01320017
KPTS 181855Z AUTO 17013G19KT 10SM CLR 12/00 A2997 RMK AO2 T01220004
KPTS 181835Z AUTO 18016G20KT 10SM CLR 11/00 A2998 RMK AO2 T01111002
KPTS 181815Z AUTO 17012G21KT 10SM CLR 11/M01 A3001 RMK AO2 T01051007
KPTS 181755Z AUTO 17016G23KT 10SM CLR 11/M01 A3003 RMK AO2 T01051006
KPTS 181735Z AUTO 17013G17KT 10SM CLR 11/01 A3003 RMK AO2 T01050007
KPTS 181715Z AUTO 16011G15KT 10SM CLR 10/01 A3005 RMK AO2 T01020011
KPTS 181655Z AUTO 17009KT 10SM CLR 09/00 A3006 RMK AO2 T00920002
KPTS 181635Z AUTO 18012KT 10SM CLR 08/00 A3007 RMK AO2 T00761003
KPTS 181615Z AUTO 18010G17KT 10SM CLR 07/00 A3008 RMK AO2 T00681003
KPTS 181555Z AUTO 17011KT 10SM CLR 06/00 A3008 RMK AO2 T00640000
KPTS 181535Z AUTO 17010G16KT 10SM CLR 06/00 A3009 RMK AO2 T00630002
KPTS 181515Z AUTO 16010G15KT 10SM CLR 06/00 A3009 RMK AO2 T00570003
KPTS 181455Z AUTO 16012G17KT 10SM CLR 05/01 A3010 RMK AO2 T00520006
KPTS 181435Z AUTO 17010G16KT 10SM CLR 05/01 A3010 RMK AO2 T00500012
KPTS 181415Z AUTO 16011G15KT 10SM CLR 05/02 A3010 RMK AO2 T00500018
KPTS 181355Z AUTO 17008KT 10SM CLR 04/02 A3010 RMK AO2 T00390020
KPTS 181335Z AUTO 18007KT 10SM CLR 04/02 A3010 RMK AO2 T00350019
KPTS 181315Z AUTO 17005KT 10SM CLR 04/02 A3011 RMK AO2 T00350019
KPTS 181255Z AUTO 18006KT 10SM CLR 03/02 A3011 RMK AO2 T00340020
KPTS 181235Z AUTO 18005KT 10SM CLR 03/02 A3012 RMK AO2 T00310017
KPTS 181215Z AUTO 16006KT 10SM CLR 02/01 A3012 RMK AO2 T00240010
KPTS 181155Z AUTO 17004KT 10SM CLR 03/01 A3014 RMK AO2 T00260011
KPTS 181135Z AUTO 17006KT 10SM CLR 03/01 A3014 RMK AO2 T00280011
KPTS 181115Z AUTO 17006KT 10SM CLR 04/01 A3015 RMK AO2 T00350013
KPTS 181055Z AUTO 18005KT 10SM CLR 03/01 A3015 RMK AO2 T00340013
KPTS 181035Z AUTO 17006KT 10SM CLR 03/01 A3016 RMK AO2 T00250009
KPTS 181015Z AUTO 16004KT 10SM CLR 02/01 A3016 RMK AO2 T00200008
KPTS 180955Z AUTO 14004KT 10SM CLR 02/01 A3016 RMK AO2 T00200010
KPTS 180935Z AUTO 15003KT 10SM CLR 03/01 A3016 RMK AO2 T00250014
KPTS 180915Z AUTO 17004KT 10SM CLR 03/02 A3017 RMK AO2 T00250016
KPTS 180855Z AUTO 16004KT 10SM CLR 02/02 A3018 RMK AO2 T00200015
KPTS 180835Z AUTO 16005KT 10SM CLR 02/02 A3019 RMK AO2 T00200015
KPTS 180815Z AUTO 17004KT 10SM CLR 02/02 A3020 RMK AO2 T00200016
KPTS 180755Z AUTO 17004KT 10SM CLR 02/02 A3020 RMK AO2 T00200017
KPTS 180735Z AUTO 17004KT 10SM CLR 01/01 A3020 RMK AO2 T00140011
KPTS 180715Z AUTO 17003KT 10SM CLR 02/02 A3021 RMK AO2 T00200015
KPTS 180655Z AUTO 00000KT 7SM CLR 02/02 A3021 RMK AO2 T00200016
KPTS 180635Z AUTO 20004KT 10SM CLR 02/01 A3021 RMK AO2 T00170011
KPTS 180615Z AUTO 00000KT 10SM CLR 01/00 A3020 RMK AO2 T00090003
KPTS 180555Z AUTO 00000KT 10SM CLR 00/M01 A3020 RMK AO2 T10021009
KPTS 180535Z AUTO 00000KT 10SM CLR 00/M01 A3020 RMK AO2 T00011006
KPTS 180515Z AUTO 00000KT 10SM CLR 00/M01 A3020 RMK AO2 T00011010
KPTS 180455Z AUTO 00000KT 10SM CLR 00/M01 A3020 RMK AO2 T00011010
KPTS 180435Z AUTO 00000KT 10SM CLR 01/M01 A3021 RMK AO2 T00101006
KPTS 180415Z AUTO 00000KT 10SM CLR 01/M01 A3021 RMK AO2 T00121007
KPTS 180355Z AUTO 00000KT 10SM CLR 02/M01 A3021 RMK AO2 T00171006
KPTS 180335Z AUTO 00000KT 10SM CLR 02/M01 A3020 RMK AO2 T00201007
KPTS 180315Z AUTO 00000KT 10SM CLR 02/M01 A3020 RMK AO2 T00201007
KPTS 180255Z AUTO 00000KT 10SM CLR 02/M01 A3019 RMK AO2 T00201012
KPTS 180235Z AUTO 00000KT 10SM CLR 02/M01 A3019 RMK AO2 T00221010
KPTS 180215Z AUTO 00000KT 10SM CLR 03/M01 A3018 RMK AO2 T00301007
KPTS 180155Z AUTO 00000KT 10SM CLR 04/M01 A3019 RMK AO2 T00381007
KPTS 180135Z AUTO 00000KT 10SM CLR 05/M01 A3018 RMK AO2 T00471006
KPTS 180115Z AUTO 00000KT 10SM CLR 05/M01 A3017 RMK AO2 T00521010
KPTS 180055Z AUTO 00000KT 10SM CLR 07/M02 A3017 RMK AO2 T00701020
KPTS 180035Z AUTO 00000KT 10SM CLR 10/M02 A3016 RMK AO2 T00981023
KPTS 180015Z AUTO 00000KT 10SM CLR 12/M03 A3015 RMK AO2 T01171029
KPTS 172355Z AUTO 00000KT 10SM CLR 13/M02 A3014 RMK AO2 T01331025
KPTS 172335Z AUTO 00000KT 10SM CLR 13/M02 A3014 RMK AO2 T01331025
KPTS 172315Z AUTO 35004KT 10SM CLR 13/M03 A3012 RMK AO2 T01341026
KPTS 172255Z AUTO 34007KT 10SM CLR 14/M02 A3011 RMK AO2 T01421020
KPTS 172235Z AUTO 34007KT 320V020 10SM CLR 15/M01 A3011 RMK AO2 T01471010
KPTS 172215Z AUTO 34009KT 10SM CLR 15/00 A3011 RMK AO2 T01470001
KPTS 172155Z AUTO 33008KT 10SM CLR 14/03 A3011 RMK AO2 T01360032
KPTS 172135Z AUTO 31003KT 10SM CLR 13/05 A3011 RMK AO2 T01330049
KPTS 172115Z AUTO 28005KT 10SM CLR 12/04 A3011 RMK AO2 T01240044
KPTS 172055Z AUTO 30006KT 10SM CLR 12/04 A3010 RMK AO2 T01180042
KPTS 172035Z AUTO 31006KT 270V340 10SM CLR 11/04 A3010 RMK AO2 T01100043
KPTS 172015Z AUTO 28003KT 10SM CLR 11/05 A3009 RMK AO2 T01050045
KPTS 171955Z AUTO 27006KT 10SM CLR 11/05 A3009 RMK AO2 T01050052
KPTS 171935Z AUTO 29004KT 10SM CLR 10/05 A3008 RMK AO2 T00990049
KPTS 171915Z AUTO 26006KT 10SM CLR 09/05 A3008 RMK AO2 T00910045
KPTS 171855Z AUTO 29007KT 10SM SCT019 SCT023 09/05 A3009 RMK AO2 T00860045
KPTS 171835Z AUTO 28005KT 10SM SCT017 SCT023 07/04 A3009 RMK AO2 T00720039
KPTS 171815Z AUTO 26008KT 10SM BKN017 OVC023 07/04 A3008 RMK AO2 T00650037
KPTS 171755Z AUTO 28005KT 10SM OVC016 06/04 A3009 RMK AO2 T00620040
KPTS 171735Z AUTO 26007G17KT 10SM BKN014 OVC019 06/04 A3008 RMK AO2 T00560042
KPTS 171715Z AUTO 26008KT 10SM BKN010 OVC014 05/04 A3008 RMK AO2 T00510042
KPTS 171655Z AUTO 26011G16KT 10SM OVC008 05/05 A3007 RMK AO2 T00500045
KPTS 171635Z AUTO 26010G14KT 10SM OVC006 05/05 A3007 RMK AO2 T00500046
KPTS 171615Z AUTO 26011G14KT 10SM OVC006 05/05 A3007 RMK AO2 T00500047
KPTS 171555Z AUTO 27007KT 10SM OVC008 05/05 A3006 RMK AO2 T00500049
KPTS 171535Z AUTO 24007KT 10SM OVC008 04/04 A3005 RMK AO2 T00420043
KPTS 171515Z AUTO 23007KT 7SM BKN005 OVC011 04/04 A3004 RMK AO2 T00370038
KPTS 171455Z AUTO 22006KT 7SM OVC005 04/04 A3004 RMK AO2 T00350036
KPTS 171435Z AUTO 18005KT 4SM -DZ BKN003 OVC008 04/04 A3002 RMK AO2 T00350036
KPTS 171415Z AUTO 18004KT 3SM -RA SCT003 OVC010 04/04 A3003 RMK AO2 T00350036
KPTS 171355Z AUTO 00000KT 3SM DZ SCT005 OVC008 04/04 A3002 RMK AO2 P0002 T00350036
KPTS 171335Z AUTO 00000KT 2SM +RA SCT004 OVC010 04/04 A3001 RMK AO2 P0001 T00350036
KPTS 171315Z AUTO 00000KT 4SM DZ OVC012 04/04 A2999 RMK AO2 T00350036
KPTS 171255Z AUTO 14004KT 7SM RA OVC014 04/04 A2998 RMK AO2 T00350036
KPTS 171235Z AUTO 12003KT 10SM OVC016 04/04 A2999 RMK AO2 T00350036
KPTS 171215Z AUTO 13005KT 7SM BKN020 OVC027 04/04 A2998 RMK AO2 T00350035
KPTS 171155Z AUTO 15004KT 7SM RA BKN026 OVC031 04/03 A3000 RMK AO2 P0006 T00350034
KPTS 171135Z AUTO 00000KT 4SM -RA SCT026 BKN031 OVC038 04/03 A3001 RMK AO2 P0005 T00350032
KPTS 171115Z AUTO 14003KT 7SM -RA SCT026 SCT031 OVC038 04/03 A3000 RMK AO2 P0001 T00350030
KPTS 171055Z AUTO 15004KT 5SM -RA BKN029 OVC037 04/03 A3001 RMK AO2 P0007 T00350029
KPTS 171035Z AUTO 14004KT 7SM -RA BKN033 OVC039 03/03 A3002 RMK AO2 P0004 T00340025
KPTS 171015Z AUTO 00000KT 4SM -RA OVC035 03/02 A3004 RMK AO2 P0003 T00320019
KPTS 170955Z AUTO 00000KT 10SM -RA OVC035 03/01 A3004 RMK AO2 P0005 T00280010
KPTS 170935Z AUTO 00000KT 7SM -RA SCT037 OVC042 03/01 A3004 RMK AO2 P0004 T00300005
KPTS 170915Z AUTO 13003KT 7SM RA BKN044 OVC055 04/00 A3006 RMK AO2 P0002 T00350004
KPTS 170855Z AUTO 15004KT 7SM RA SCT036 OVC046 04/M01 A3007 RMK AO2 P0001 T00351006
KPTS 170835Z AUTO 14004KT 10SM -RA SCT036 BKN046 OVC055 04/M02 A3007 RMK AO2 T00351021
KPTS 170815Z AUTO 15006KT 10SM BKN060 OVC070 04/M02 A3008 RMK AO2 T00351025